sensor_id;sensor_type;location;lat;lon;timestamp;temperature;humidity
32502;DHT22;18952;52.516;13.460;2022-12-29T00:00:14;6.90;99.90
32502;DHT22;18952;52.516;13.460;2022-12-29T00:02:41;6.90;99.90
32502;DHT22;18952;52.516;13.460;2022-12-29T00:05:08;6.90;99.90
32502;DHT22;18952;52.516;13.460;2022-12-29T00:07:35;6.90;99.90
32502;DHT22;18952;52.516;13.460;2022-12-29T00:10:02;6.90;99.90
32502;DHT22;18952;52.516;13.460;2022-12-29T00:12:29;6.90;99.90
32502;DHT22;18952;52.516;13.460;2022-12-29T00:14:56;6.90;99.90
32502;DHT22;18952;52.516;13.460;2022-12-29T00:17:23;6.90;99.90
32502;DHT22;18952;52.516;13.460;2022-12-29T00:19:49;6.90;99.90
32502;DHT22;18952;52.516;13.460;2022-12-29T00:22:16;7.00;99.90
32502;DHT22;18952;52.516;13.460;2022-12-29T00:24:44;7.00;99.90
32502;DHT22;18952;52.516;13.460;2022-12-29T00:27:12;7.00;99.90
32502;DHT22;18952;52.516;13.460;2022-12-29T00:29:39;7.00;99.90
32502;DHT22;18952;52.516;13.460;2022-12-29T00:32:09;7.00;99.90
32502;DHT22;18952;52.516;13.460;2022-12-29T00:34:36;7.10;99.90
32502;DHT22;18952;52.516;13.460;2022-12-29T00:37:02;7.10;99.90
32502;DHT22;18952;52.516;13.460;2022-12-29T00:39:29;7.00;99.90
32502;DHT22;18952;52.516;13.460;2022-12-29T00:41:56;7.10;99.90
32502;DHT22;18952;52.516;13.460;2022-12-29T00:44:23;7.00;99.90
32502;DHT22;18952;52.516;13.460;2022-12-29T00:46:49;7.10;99.90
32502;DHT22;18952;52.516;13.460;2022-12-29T00:49:16;7.10;99.90
32502;DHT22;18952;52.516;13.460;2022-12-29T00:51:43;7.10;99.90
32502;DHT22;18952;52.516;13.460;2022-12-29T00:54:10;7.10;99.90
32502;DHT22;18952;52.516;13.460;2022-12-29T00:56:37;7.10;99.90
32502;DHT22;18952;52.516;13.460;2022-12-29T00:59:06;7.10;99.90
32502;DHT22;18952;52.516;13.460;2022-12-29T01:01:34;7.10;99.90
32502;DHT22;18952;52.516;13.460;2022-12-29T01:04:02;7.10;99.90
32502;DHT22;18952;52.516;13.460;2022-12-29T01:06:31;7.10;99.90
32502;DHT22;18952;52.516;13.460;2022-12-29T01:08:59;7.10;99.90
32502;DHT22;18952;52.516;13.460;2022-12-29T01:11:25;7.10;99.90
32502;DHT22;18952;52.516;13.460;2022-12-29T01:13:52;7.10;99.90
32502;DHT22;18952;52.516;13.460;2022-12-29T01:16:19;7.10;99.90
32502;DHT22;18952;52.516;13.460;2022-12-29T01:18:45;7.10;99.90
32502;DHT22;18952;52.516;13.460;2022-12-29T01:21:12;7.10;99.90
32502;DHT22;18952;52.516;13.460;2022-12-29T01:23:39;7.10;99.90
32502;DHT22;18952;52.516;13.460;2022-12-29T01:26:11;7.10;99.90
32502;DHT22;18952;52.516;13.460;2022-12-29T01:28:38;7.10;99.90
32502;DHT22;18952;52.516;13.460;2022-12-29T01:31:05;7.10;99.90
32502;DHT22;18952;52.516;13.460;2022-12-29T01:33:32;7.20;99.90
32502;DHT22;18952;52.516;13.460;2022-12-29T01:36:03;7.10;99.90
32502;DHT22;18952;52.516;13.460;2022-12-29T01:38:31;7.20;99.90
32502;DHT22;18952;52.516;13.460;2022-12-29T01:40:58;7.10;99.90
32502;DHT22;18952;52.516;13.460;2022-12-29T01:43:51;7.20;99.90
32502;DHT22;18952;52.516;13.460;2022-12-29T01:46:35;7.20;99.90
32502;DHT22;18952;52.516;13.460;2022-12-29T01:51:40;7.20;99.90
32502;DHT22;18952;52.516;13.460;2022-12-29T01:54:17;7.20;99.90
32502;DHT22;18952;52.516;13.460;2022-12-29T01:56:46;7.10;99.90
32502;DHT22;18952;52.516;13.460;2022-12-29T01:59:21;7.10;99.90
32502;DHT22;18952;52.516;13.460;2022-12-29T02:01:49;7.10;99.90
32502;DHT22;18952;52.516;13.460;2022-12-29T02:04:17;7.10;99.90
32502;DHT22;18952;52.516;13.460;2022-12-29T02:06:51;7.10;99.90
32502;DHT22;18952;52.516;13.460;2022-12-29T02:09:19;7.00;99.90
32502;DHT22;18952;52.516;13.460;2022-12-29T02:11:46;7.00;99.90
32502;DHT22;18952;52.516;13.460;2022-12-29T02:14:14;7.00;99.90
32502;DHT22;18952;52.516;13.460;2022-12-29T02:16:54;7.00;99.90
32502;DHT22;18952;52.516;13.460;2022-12-29T02:33:33;7.00;99.90
32502;DHT22;18952;52.516;13.460;2022-12-29T02:36:21;7.00;99.90
32502;DHT22;18952;52.516;13.460;2022-12-29T02:39:13;7.00;99.90
32502;DHT22;18952;52.516;13.460;2022-12-29T02:44:41;7.10;99.90
32502;DHT22;18952;52.516;13.460;2022-12-29T02:47:18;7.10;99.90
32502;DHT22;18952;52.516;13.460;2022-12-29T02:49:56;7.10;99.90
32502;DHT22;18952;52.516;13.460;2022-12-29T02:52:37;7.10;99.90
32502;DHT22;18952;52.516;13.460;2022-12-29T02:55:05;7.20;99.90
32502;DHT22;18952;52.516;13.460;2022-12-29T02:57:34;7.20;99.90
32502;DHT22;18952;52.516;13.460;2022-12-29T03:00:05;7.20;99.90
32502;DHT22;18952;52.516;13.460;2022-12-29T03:08:45;7.40;99.90
32502;DHT22;18952;52.516;13.460;2022-12-29T03:11:15;7.40;99.90
32502;DHT22;18952;52.516;13.460;2022-12-29T03:13:49;7.40;99.90
32502;DHT22;18952;52.516;13.460;2022-12-29T03:16:44;7.50;99.90
32502;DHT22;18952;52.516;13.460;2022-12-29T03:19:25;7.60;99.90
32502;DHT22;18952;52.516;13.460;2022-12-29T03:24:26;7.70;99.90
32502;DHT22;18952;52.516;13.460;2022-12-29T03:26:57;7.70;99.90
32502;DHT22;18952;52.516;13.460;2022-12-29T03:29:29;7.70;99.90
32502;DHT22;18952;52.516;13.460;2022-12-29T03:31:59;7.70;99.90
32502;DHT22;18952;52.516;13.460;2022-12-29T03:34:26;7.80;99.90
32502;DHT22;18952;52.516;13.460;2022-12-29T03:37:14;7.80;99.90
32502;DHT22;18952;52.516;13.460;2022-12-29T03:39:44;7.90;99.90
32502;DHT22;18952;52.516;13.460;2022-12-29T03:42:20;7.90;99.90
32502;DHT22;18952;52.516;13.460;2022-12-29T03:44:48;7.90;99.90
32502;DHT22;18952;52.516;13.460;2022-12-29T03:47:15;7.90;99.90
32502;DHT22;18952;52.516;13.460;2022-12-29T03:49:42;7.90;99.90
32502;DHT22;18952;52.516;13.460;2022-12-29T03:52:09;7.90;99.90
32502;DHT22;18952;52.516;13.460;2022-12-29T03:54:36;8.00;99.90
32502;DHT22;18952;52.516;13.460;2022-12-29T03:57:03;8.00;99.90
32502;DHT22;18952;52.516;13.460;2022-12-29T03:59:29;8.00;99.90
32502;DHT22;18952;52.516;13.460;2022-12-29T04:01:56;8.00;99.90
32502;DHT22;18952;52.516;13.460;2022-12-29T04:04:23;8.00;99.90
32502;DHT22;18952;52.516;13.460;2022-12-29T04:06:50;8.00;99.90
32502;DHT22;18952;52.516;13.460;2022-12-29T04:09:16;8.00;99.90
32502;DHT22;18952;52.516;13.460;2022-12-29T04:11:43;8.00;99.90
32502;DHT22;18952;52.516;13.460;2022-12-29T04:14:10;8.00;99.90
32502;DHT22;18952;52.516;13.460;2022-12-29T04:16:37;8.10;99.90
32502;DHT22;18952;52.516;13.460;2022-12-29T04:19:04;8.10;99.90
32502;DHT22;18952;52.516;13.460;2022-12-29T04:21:31;8.10;99.90
32502;DHT22;18952;52.516;13.460;2022-12-29T04:23:57;8.10;99.90
32502;DHT22;18952;52.516;13.460;2022-12-29T04:26:24;8.10;99.90
32502;DHT22;18952;52.516;13.460;2022-12-29T04:28:51;8.10;99.90
32502;DHT22;18952;52.516;13.460;2022-12-29T04:31:18;8.10;99.90
32502;DHT22;18952;52.516;13.460;2022-12-29T04:33:45;8.10;99.90
32502;DHT22;18952;52.516;13.460;2022-12-29T04:36:11;8.20;99.90
32502;DHT22;18952;52.516;13.460;2022-12-29T04:38:38;8.10;99.90
32502;DHT22;18952;52.516;13.460;2022-12-29T04:41:05;8.20;99.90
32502;DHT22;18952;52.516;13.460;2022-12-29T04:43:31;8.10;99.90
32502;DHT22;18952;52.516;13.460;2022-12-29T04:45:58;8.10;99.90
32502;DHT22;18952;52.516;13.460;2022-12-29T04:48:25;8.10;99.90
32502;DHT22;18952;52.516;13.460;2022-12-29T04:50:52;8.10;99.90
32502;DHT22;18952;52.516;13.460;2022-12-29T04:53:18;8.20;99.90
32502;DHT22;18952;52.516;13.460;2022-12-29T04:55:51;8.20;99.90
32502;DHT22;18952;52.516;13.460;2022-12-29T04:58:21;8.20;99.90
32502;DHT22;18952;52.516;13.460;2022-12-29T05:00:50;8.20;99.90
32502;DHT22;18952;52.516;13.460;2022-12-29T05:03:17;8.20;99.90
32502;DHT22;18952;52.516;13.460;2022-12-29T05:05:44;8.10;99.90
32502;DHT22;18952;52.516;13.460;2022-12-29T05:08:11;8.20;99.90
32502;DHT22;18952;52.516;13.460;2022-12-29T05:10:38;8.20;99.90
32502;DHT22;18952;52.516;13.460;2022-12-29T05:13:04;8.20;99.90
32502;DHT22;18952;52.516;13.460;2022-12-29T05:15:31;8.20;99.90
32502;DHT22;18952;52.516;13.460;2022-12-29T05:17:59;8.30;99.90
32502;DHT22;18952;52.516;13.460;2022-12-29T05:20:25;8.30;99.90
32502;DHT22;18952;52.516;13.460;2022-12-29T05:22:52;8.30;99.90
32502;DHT22;18952;52.516;13.460;2022-12-29T05:25:19;8.40;99.90
32502;DHT22;18952;52.516;13.460;2022-12-29T05:27:45;8.40;99.90
32502;DHT22;18952;52.516;13.460;2022-12-29T05:30:12;8.40;99.90
32502;DHT22;18952;52.516;13.460;2022-12-29T05:32:39;8.50;99.90
32502;DHT22;18952;52.516;13.460;2022-12-29T05:35:06;8.50;99.90
32502;DHT22;18952;52.516;13.460;2022-12-29T05:37:33;8.50;99.90
32502;DHT22;18952;52.516;13.460;2022-12-29T05:40:00;8.50;99.90
32502;DHT22;18952;52.516;13.460;2022-12-29T05:42:27;8.50;99.90
32502;DHT22;18952;52.516;13.460;2022-12-29T05:44:54;8.50;99.90
32502;DHT22;18952;52.516;13.460;2022-12-29T05:47:20;8.50;99.90
32502;DHT22;18952;52.516;13.460;2022-12-29T05:49:47;8.60;99.90
32502;DHT22;18952;52.516;13.460;2022-12-29T05:52:14;8.50;99.90
32502;DHT22;18952;52.516;13.460;2022-12-29T05:54:40;8.60;99.90
32502;DHT22;18952;52.516;13.460;2022-12-29T05:57:07;8.70;99.90
32502;DHT22;18952;52.516;13.460;2022-12-29T05:59:34;8.70;99.90
32502;DHT22;18952;52.516;13.460;2022-12-29T06:02:01;8.70;99.90
32502;DHT22;18952;52.516;13.460;2022-12-29T06:04:28;8.80;99.90
32502;DHT22;18952;52.516;13.460;2022-12-29T06:06:55;8.80;99.90
32502;DHT22;18952;52.516;13.460;2022-12-29T06:09:22;8.80;99.90
32502;DHT22;18952;52.516;13.460;2022-12-29T06:11:48;8.80;99.90
32502;DHT22;18952;52.516;13.460;2022-12-29T06:14:15;8.80;99.90
32502;DHT22;18952;52.516;13.460;2022-12-29T06:16:42;8.90;99.90
32502;DHT22;18952;52.516;13.460;2022-12-29T06:19:09;8.90;99.90
32502;DHT22;18952;52.516;13.460;2022-12-29T06:21:36;8.90;99.90
32502;DHT22;18952;52.516;13.460;2022-12-29T06:24:03;8.90;99.90
32502;DHT22;18952;52.516;13.460;2022-12-29T06:26:30;9.00;99.90
32502;DHT22;18952;52.516;13.460;2022-12-29T06:28:57;9.00;99.90
32502;DHT22;18952;52.516;13.460;2022-12-29T06:31:24;9.00;99.90
32502;DHT22;18952;52.516;13.460;2022-12-29T06:33:50;9.00;99.90
32502;DHT22;18952;52.516;13.460;2022-12-29T06:36:17;9.00;99.90
32502;DHT22;18952;52.516;13.460;2022-12-29T06:38:44;9.00;99.90
32502;DHT22;18952;52.516;13.460;2022-12-29T06:41:11;9.00;99.90
32502;DHT22;18952;52.516;13.460;2022-12-29T06:43:37;9.00;99.90
32502;DHT22;18952;52.516;13.460;2022-12-29T06:46:05;9.10;99.90
32502;DHT22;18952;52.516;13.460;2022-12-29T06:48:32;9.10;99.90
32502;DHT22;18952;52.516;13.460;2022-12-29T06:50:58;9.00;99.90
32502;DHT22;18952;52.516;13.460;2022-12-29T06:53:25;9.10;99.90
32502;DHT22;18952;52.516;13.460;2022-12-29T06:55:52;9.10;99.90
32502;DHT22;18952;52.516;13.460;2022-12-29T06:58:19;9.00;99.90
32502;DHT22;18952;52.516;13.460;2022-12-29T07:00:46;9.10;99.90
32502;DHT22;18952;52.516;13.460;2022-12-29T07:03:12;9.10;99.90
32502;DHT22;18952;52.516;13.460;2022-12-29T07:05:39;9.10;99.90
32502;DHT22;18952;52.516;13.460;2022-12-29T07:08:06;9.10;99.90
32502;DHT22;18952;52.516;13.460;2022-12-29T07:10:33;9.10;99.90
32502;DHT22;18952;52.516;13.460;2022-12-29T07:13:00;9.10;99.90
32502;DHT22;18952;52.516;13.460;2022-12-29T07:15:27;9.10;99.90
32502;DHT22;18952;52.516;13.460;2022-12-29T07:17:53;9.10;99.90
32502;DHT22;18952;52.516;13.460;2022-12-29T07:20:20;9.00;99.90
32502;DHT22;18952;52.516;13.460;2022-12-29T07:22:52;9.00;99.90
32502;DHT22;18952;52.516;13.460;2022-12-29T07:25:19;9.00;99.90
32502;DHT22;18952;52.516;13.460;2022-12-29T07:27:46;9.00;99.90
32502;DHT22;18952;52.516;13.460;2022-12-29T07:30:13;9.00;99.90
32502;DHT22;18952;52.516;13.460;2022-12-29T07:32:40;9.00;99.90
32502;DHT22;18952;52.516;13.460;2022-12-29T07:35:07;9.10;99.90
32502;DHT22;18952;52.516;13.460;2022-12-29T07:37:34;9.10;99.90
32502;DHT22;18952;52.516;13.460;2022-12-29T07:40:01;9.10;99.90
32502;DHT22;18952;52.516;13.460;2022-12-29T07:42:28;9.10;99.90
32502;DHT22;18952;52.516;13.460;2022-12-29T07:44:55;9.10;99.90
32502;DHT22;18952;52.516;13.460;2022-12-29T07:47:22;9.10;99.90
32502;DHT22;18952;52.516;13.460;2022-12-29T07:49:49;9.10;99.90
32502;DHT22;18952;52.516;13.460;2022-12-29T07:52:16;9.10;99.90
32502;DHT22;18952;52.516;13.460;2022-12-29T07:54:43;9.10;99.90
32502;DHT22;18952;52.516;13.460;2022-12-29T07:57:09;9.20;99.90
32502;DHT22;18952;52.516;13.460;2022-12-29T07:59:36;9.20;99.90
32502;DHT22;18952;52.516;13.460;2022-12-29T08:02:03;9.20;99.90
32502;DHT22;18952;52.516;13.460;2022-12-29T08:04:30;9.20;99.90
32502;DHT22;18952;52.516;13.460;2022-12-29T08:06:56;9.30;99.90
32502;DHT22;18952;52.516;13.460;2022-12-29T08:09:23;9.30;99.90
32502;DHT22;18952;52.516;13.460;2022-12-29T08:11:50;9.30;99.90
32502;DHT22;18952;52.516;13.460;2022-12-29T08:14:17;9.30;99.90
32502;DHT22;18952;52.516;13.460;2022-12-29T08:16:44;9.30;99.90
32502;DHT22;18952;52.516;13.460;2022-12-29T08:19:11;9.30;99.90
32502;DHT22;18952;52.516;13.460;2022-12-29T08:21:38;9.30;99.90
32502;DHT22;18952;52.516;13.460;2022-12-29T08:24:06;9.30;99.90
32502;DHT22;18952;52.516;13.460;2022-12-29T08:26:34;9.30;99.90
32502;DHT22;18952;52.516;13.460;2022-12-29T08:29:01;9.30;99.90
32502;DHT22;18952;52.516;13.460;2022-12-29T08:31:27;9.30;99.90
32502;DHT22;18952;52.516;13.460;2022-12-29T08:33:54;9.30;99.90
32502;DHT22;18952;52.516;13.460;2022-12-29T08:36:21;9.40;99.90
32502;DHT22;18952;52.516;13.460;2022-12-29T08:38:48;9.30;99.90
32502;DHT22;18952;52.516;13.460;2022-12-29T08:41:15;9.30;99.90
32502;DHT22;18952;52.516;13.460;2022-12-29T08:43:46;9.30;99.90
32502;DHT22;18952;52.516;13.460;2022-12-29T08:46:13;9.30;99.90
32502;DHT22;18952;52.516;13.460;2022-12-29T08:48:41;9.30;99.90
32502;DHT22;18952;52.516;13.460;2022-12-29T08:51:08;9.30;99.90
32502;DHT22;18952;52.516;13.460;2022-12-29T08:53:34;9.40;99.90
32502;DHT22;18952;52.516;13.460;2022-12-29T08:56:01;9.40;99.90
32502;DHT22;18952;52.516;13.460;2022-12-29T08:58:31;9.40;99.90
32502;DHT22;18952;52.516;13.460;2022-12-29T09:00:58;9.40;99.90
32502;DHT22;18952;52.516;13.460;2022-12-29T09:03:26;9.40;99.90
32502;DHT22;18952;52.516;13.460;2022-12-29T09:06:14;9.40;99.90
32502;DHT22;18952;52.516;13.460;2022-12-29T09:08:41;9.50;99.90
32502;DHT22;18952;52.516;13.460;2022-12-29T09:13:38;9.50;99.90
32502;DHT22;18952;52.516;13.460;2022-12-29T09:16:20;9.50;99.90
32502;DHT22;18952;52.516;13.460;2022-12-29T09:19:00;9.50;99.90
32502;DHT22;18952;52.516;13.460;2022-12-29T09:21:32;9.50;99.90
32502;DHT22;18952;52.516;13.460;2022-12-29T09:23:59;9.50;99.90
32502;DHT22;18952;52.516;13.460;2022-12-29T09:26:29;9.50;99.90
32502;DHT22;18952;52.516;13.460;2022-12-29T09:29:00;9.60;99.90
32502;DHT22;18952;52.516;13.460;2022-12-29T09:31:27;9.60;99.90
32502;DHT22;18952;52.516;13.460;2022-12-29T09:33:58;9.60;99.90
32502;DHT22;18952;52.516;13.460;2022-12-29T09:39:08;9.70;99.90
32502;DHT22;18952;52.516;13.460;2022-12-29T09:41:41;9.70;99.90
32502;DHT22;18952;52.516;13.460;2022-12-29T09:44:27;9.70;99.90
32502;DHT22;18952;52.516;13.460;2022-12-29T09:46:56;9.70;99.90
32502;DHT22;18952;52.516;13.460;2022-12-29T09:49:54;9.70;99.90
32502;DHT22;18952;52.516;13.460;2022-12-29T09:52:30;9.80;99.90
32502;DHT22;18952;52.516;13.460;2022-12-29T09:55:04;9.80;99.90
32502;DHT22;18952;52.516;13.460;2022-12-29T10:00:17;9.90;99.90
32502;DHT22;18952;52.516;13.460;2022-12-29T10:03:03;9.90;99.90
32502;DHT22;18952;52.516;13.460;2022-12-29T10:16:47;10.10;99.90
32502;DHT22;18952;52.516;13.460;2022-12-29T10:19:43;10.10;99.90
32502;DHT22;18952;52.516;13.460;2022-12-29T10:25:37;10.10;99.90
32502;DHT22;18952;52.516;13.460;2022-12-29T10:28:37;10.20;99.90
32502;DHT22;18952;52.516;13.460;2022-12-29T10:31:13;10.20;99.90
32502;DHT22;18952;52.516;13.460;2022-12-29T10:33:43;10.30;99.90
32502;DHT22;18952;52.516;13.460;2022-12-29T10:36:18;10.30;99.90
32502;DHT22;18952;52.516;13.460;2022-12-29T10:39:40;10.40;99.90
32502;DHT22;18952;52.516;13.460;2022-12-29T10:42:19;10.50;99.90
32502;DHT22;18952;52.516;13.460;2022-12-29T10:44:47;10.60;99.90
32502;DHT22;18952;52.516;13.460;2022-12-29T10:47:19;10.70;99.90
32502;DHT22;18952;52.516;13.460;2022-12-29T10:49:48;10.80;99.90
32502;DHT22;18952;52.516;13.460;2022-12-29T10:52:19;10.80;99.90
32502;DHT22;18952;52.516;13.460;2022-12-29T10:57:41;10.80;99.90
32502;DHT22;18952;52.516;13.460;2022-12-29T11:00:20;10.90;99.90
32502;DHT22;18952;52.516;13.460;2022-12-29T11:05:49;11.00;99.90
32502;DHT22;18952;52.516;13.460;2022-12-29T11:08:31;11.00;99.90
32502;DHT22;18952;52.516;13.460;2022-12-29T11:11:09;11.00;99.90
32502;DHT22;18952;52.516;13.460;2022-12-29T11:13:54;11.10;99.90
32502;DHT22;18952;52.516;13.460;2022-12-29T11:16:32;11.10;99.90
32502;DHT22;18952;52.516;13.460;2022-12-29T11:19:02;11.10;99.90
32502;DHT22;18952;52.516;13.460;2022-12-29T11:21:37;11.10;99.90
32502;DHT22;18952;52.516;13.460;2022-12-29T11:24:05;11.20;99.90
32502;DHT22;18952;52.516;13.460;2022-12-29T11:26:44;11.10;99.90
32502;DHT22;18952;52.516;13.460;2022-12-29T11:29:20;11.10;99.90
32502;DHT22;18952;52.516;13.460;2022-12-29T11:31:53;11.10;99.90
32502;DHT22;18952;52.516;13.460;2022-12-29T11:34:21;11.00;99.90
32502;DHT22;18952;52.516;13.460;2022-12-29T11:36:52;11.00;99.90
32502;DHT22;18952;52.516;13.460;2022-12-29T11:39:41;11.00;99.90
32502;DHT22;18952;52.516;13.460;2022-12-29T11:42:22;11.00;99.90
32502;DHT22;18952;52.516;13.460;2022-12-29T11:44:51;11.00;99.90
32502;DHT22;18952;52.516;13.460;2022-12-29T11:47:28;10.90;99.90
32502;DHT22;18952;52.516;13.460;2022-12-29T11:49:58;10.80;99.90
32502;DHT22;18952;52.516;13.460;2022-12-29T11:52:29;10.90;99.90
32502;DHT22;18952;52.516;13.460;2022-12-29T11:54:57;10.80;99.90
32502;DHT22;18952;52.516;13.460;2022-12-29T11:57:25;10.70;99.90
32502;DHT22;18952;52.516;13.460;2022-12-29T11:59:55;10.60;99.90
32502;DHT22;18952;52.516;13.460;2022-12-29T12:05:23;10.60;99.90
32502;DHT22;18952;52.516;13.460;2022-12-29T12:13:25;10.30;99.90
32502;DHT22;18952;52.516;13.460;2022-12-29T12:15:59;10.20;99.90
32502;DHT22;18952;52.516;13.460;2022-12-29T12:18:37;10.00;99.90
32502;DHT22;18952;52.516;13.460;2022-12-29T12:21:56;9.80;99.90
32502;DHT22;18952;52.516;13.460;2022-12-29T12:24:19;9.60;99.90
32502;DHT22;18952;52.516;13.460;2022-12-29T12:29:26;9.40;99.90
32502;DHT22;18952;52.516;13.460;2022-12-29T12:32:12;9.30;99.90
32502;DHT22;18952;52.516;13.460;2022-12-29T12:34:44;9.30;99.90
32502;DHT22;18952;52.516;13.460;2022-12-29T12:48:42;9.30;99.90
32502;DHT22;18952;52.516;13.460;2022-12-29T12:54:07;9.30;99.90
32502;DHT22;18952;52.516;13.460;2022-12-29T12:56:52;9.20;99.90
32502;DHT22;18952;52.516;13.460;2022-12-29T13:00:18;9.20;99.90
32502;DHT22;18952;52.516;13.460;2022-12-29T13:02:30;9.20;99.90
32502;DHT22;18952;52.516;13.460;2022-12-29T13:10:59;9.20;99.90
32502;DHT22;18952;52.516;13.460;2022-12-29T13:16:39;9.20;99.90
32502;DHT22;18952;52.516;13.460;2022-12-29T13:22:25;9.20;99.90
32502;DHT22;18952;52.516;13.460;2022-12-29T13:33:40;9.40;99.90
32502;DHT22;18952;52.516;13.460;2022-12-29T13:39:23;9.20;99.90
32502;DHT22;18952;52.516;13.460;2022-12-29T13:41:53;9.20;99.90
32502;DHT22;18952;52.516;13.460;2022-12-29T13:44:34;9.20;99.90
32502;DHT22;18952;52.516;13.460;2022-12-29T13:49:50;9.20;99.90
32502;DHT22;18952;52.516;13.460;2022-12-29T13:52:34;9.20;99.90
32502;DHT22;18952;52.516;13.460;2022-12-29T14:00:59;9.30;99.90
32502;DHT22;18952;52.516;13.460;2022-12-29T14:08:52;9.30;99.90
32502;DHT22;18952;52.516;13.460;2022-12-29T14:11:22;9.30;99.90
32502;DHT22;18952;52.516;13.460;2022-12-29T14:13:49;9.40;99.90
32502;DHT22;18952;52.516;13.460;2022-12-29T14:16:31;9.40;99.90
32502;DHT22;18952;52.516;13.460;2022-12-29T14:19:21;9.30;99.90
32502;DHT22;18952;52.516;13.460;2022-12-29T14:22:16;9.30;99.90
32502;DHT22;18952;52.516;13.460;2022-12-29T14:24:56;9.20;99.90
32502;DHT22;18952;52.516;13.460;2022-12-29T14:29:55;9.20;99.90
32502;DHT22;18952;52.516;13.460;2022-12-29T14:34:59;9.20;99.90
32502;DHT22;18952;52.516;13.460;2022-12-29T14:37:34;9.20;99.90
32502;DHT22;18952;52.516;13.460;2022-12-29T14:40:03;9.20;99.90
32502;DHT22;18952;52.516;13.460;2022-12-29T14:42:31;9.10;99.90
32502;DHT22;18952;52.516;13.460;2022-12-29T14:45:02;9.10;99.90
32502;DHT22;18952;52.516;13.460;2022-12-29T14:47:39;9.10;99.90
32502;DHT22;18952;52.516;13.460;2022-12-29T14:57:44;9.10;99.90
32502;DHT22;18952;52.516;13.460;2022-12-29T15:00:17;9.10;99.90
32502;DHT22;18952;52.516;13.460;2022-12-29T15:02:54;9.10;99.90
32502;DHT22;18952;52.516;13.460;2022-12-29T15:08:07;9.10;99.90
32502;DHT22;18952;52.516;13.460;2022-12-29T15:10:42;9.10;99.90
32502;DHT22;18952;52.516;13.460;2022-12-29T15:13:22;9.10;99.90
32502;DHT22;18952;52.516;13.460;2022-12-29T15:15:49;9.10;99.90
32502;DHT22;18952;52.516;13.460;2022-12-29T15:18:28;9.10;99.90
32502;DHT22;18952;52.516;13.460;2022-12-29T15:21:06;9.10;99.90
32502;DHT22;18952;52.516;13.460;2022-12-29T15:23:34;9.20;99.90
32502;DHT22;18952;52.516;13.460;2022-12-29T15:26:04;9.10;99.90
32502;DHT22;18952;52.516;13.460;2022-12-29T15:28:45;9.00;99.90
32502;DHT22;18952;52.516;13.460;2022-12-29T15:31:13;8.90;99.90
32502;DHT22;18952;52.516;13.460;2022-12-29T15:33:43;8.80;99.90
32502;DHT22;18952;52.516;13.460;2022-12-29T15:36:12;8.70;99.90
32502;DHT22;18952;52.516;13.460;2022-12-29T15:38:40;8.70;99.90
32502;DHT22;18952;52.516;13.460;2022-12-29T15:44:07;8.50;99.90
32502;DHT22;18952;52.516;13.460;2022-12-29T15:46:37;8.50;99.90
32502;DHT22;18952;52.516;13.460;2022-12-29T15:49:08;8.50;99.90
32502;DHT22;18952;52.516;13.460;2022-12-29T15:51:38;8.40;99.90
32502;DHT22;18952;52.516;13.460;2022-12-29T15:54:19;8.40;99.90
32502;DHT22;18952;52.516;13.460;2022-12-29T15:56:47;8.40;99.90
32502;DHT22;18952;52.516;13.460;2022-12-29T15:59:27;8.30;99.90
32502;DHT22;18952;52.516;13.460;2022-12-29T16:01:58;8.30;99.90
32502;DHT22;18952;52.516;13.460;2022-12-29T16:04:29;8.30;99.90
32502;DHT22;18952;52.516;13.460;2022-12-29T16:07:05;8.30;99.90
32502;DHT22;18952;52.516;13.460;2022-12-29T16:12:06;8.20;99.90
32502;DHT22;18952;52.516;13.460;2022-12-29T16:14:47;8.20;99.90
32502;DHT22;18952;52.516;13.460;2022-12-29T16:17:24;8.20;99.90
32502;DHT22;18952;52.516;13.460;2022-12-29T16:19:58;8.20;99.90
32502;DHT22;18952;52.516;13.460;2022-12-29T16:22:33;8.30;99.90
32502;DHT22;18952;52.516;13.460;2022-12-29T16:27:53;8.30;99.90
32502;DHT22;18952;52.516;13.460;2022-12-29T16:30:24;8.30;99.90
32502;DHT22;18952;52.516;13.460;2022-12-29T16:33:01;8.30;99.90
32502;DHT22;18952;52.516;13.460;2022-12-29T16:35:38;8.30;99.90
32502;DHT22;18952;52.516;13.460;2022-12-29T16:43:32;8.30;99.90
32502;DHT22;18952;52.516;13.460;2022-12-29T16:48:26;8.30;99.90
32502;DHT22;18952;52.516;13.460;2022-12-29T16:51:15;8.30;99.90
32502;DHT22;18952;52.516;13.460;2022-12-29T16:53:49;8.30;99.90
32502;DHT22;18952;52.516;13.460;2022-12-29T16:56:20;8.30;99.90
32502;DHT22;18952;52.516;13.460;2022-12-29T16:58:49;8.30;99.90
32502;DHT22;18952;52.516;13.460;2022-12-29T17:01:16;8.30;99.90
32502;DHT22;18952;52.516;13.460;2022-12-29T17:03:52;8.30;99.90
32502;DHT22;18952;52.516;13.460;2022-12-29T17:06:22;8.30;99.90
32502;DHT22;18952;52.516;13.460;2022-12-29T17:08:50;8.30;99.90
32502;DHT22;18952;52.516;13.460;2022-12-29T17:11:31;8.30;99.90
32502;DHT22;18952;52.516;13.460;2022-12-29T17:13:58;8.30;99.90
32502;DHT22;18952;52.516;13.460;2022-12-29T17:16:25;8.30;99.90
32502;DHT22;18952;52.516;13.460;2022-12-29T17:18:52;8.30;99.90
32502;DHT22;18952;52.516;13.460;2022-12-29T17:21:19;8.20;99.90
32502;DHT22;18952;52.516;13.460;2022-12-29T17:23:46;8.20;99.90
32502;DHT22;18952;52.516;13.460;2022-12-29T17:26:12;8.20;99.90
32502;DHT22;18952;52.516;13.460;2022-12-29T17:28:39;8.30;99.90
32502;DHT22;18952;52.516;13.460;2022-12-29T17:31:08;8.30;99.90
32502;DHT22;18952;52.516;13.460;2022-12-29T17:33:37;8.40;99.90
32502;DHT22;18952;52.516;13.460;2022-12-29T17:36:04;8.40;99.90
32502;DHT22;18952;52.516;13.460;2022-12-29T17:38:34;8.50;99.90
32502;DHT22;18952;52.516;13.460;2022-12-29T17:41:01;8.50;99.90
32502;DHT22;18952;52.516;13.460;2022-12-29T17:43:28;8.50;99.90
32502;DHT22;18952;52.516;13.460;2022-12-29T17:46:02;8.60;99.90
32502;DHT22;18952;52.516;13.460;2022-12-29T17:48:31;8.60;99.90
32502;DHT22;18952;52.516;13.460;2022-12-29T17:50:58;8.60;99.90
32502;DHT22;18952;52.516;13.460;2022-12-29T17:53:27;8.70;99.90
32502;DHT22;18952;52.516;13.460;2022-12-29T17:55:54;8.70;99.90
32502;DHT22;18952;52.516;13.460;2022-12-29T17:58:26;8.70;99.90
32502;DHT22;18952;52.516;13.460;2022-12-29T18:00:55;8.70;99.90
32502;DHT22;18952;52.516;13.460;2022-12-29T18:05:57;8.80;99.90
32502;DHT22;18952;52.516;13.460;2022-12-29T18:08:24;8.80;99.90
32502;DHT22;18952;52.516;13.460;2022-12-29T18:10:52;8.80;99.90
32502;DHT22;18952;52.516;13.460;2022-12-29T18:13:24;8.70;99.90
32502;DHT22;18952;52.516;13.460;2022-12-29T18:15:56;8.70;99.90
32502;DHT22;18952;52.516;13.460;2022-12-29T18:18:26;8.70;99.90
32502;DHT22;18952;52.516;13.460;2022-12-29T18:20:55;8.70;99.90
32502;DHT22;18952;52.516;13.460;2022-12-29T18:23:26;8.60;99.90
32502;DHT22;18952;52.516;13.460;2022-12-29T18:26:15;8.50;99.90